sensor_id;sensor_type;location;lat;lon;timestamp;P1;durP1;ratioP1;P2;durP2;ratioP2
71296;SDS011;59082;50.658;4.608;2023-10-19T00:00:56;3.22;;;1.45;;
71296;SDS011;59082;50.658;4.608;2023-10-19T00:03:23;5.13;;;0.87;;
71296;SDS011;59082;50.658;4.608;2023-10-19T00:05:49;4.18;;;0.80;;
71296;SDS011;59082;50.658;4.608;2023-10-19T00:08:15;3.30;;;1.30;;
71296;SDS011;59082;50.658;4.608;2023-10-19T00:10:49;2.53;;;1.10;;
71296;SDS011;59082;50.658;4.608;2023-10-19T00:13:27;4.15;;;1.10;;
71296;SDS011;59082;50.658;4.608;2023-10-19T00:15:55;3.57;;;1.40;;
71296;SDS011;59082;50.658;4.608;2023-10-19T00:18:25;4.63;;;1.40;;
71296;SDS011;59082;50.658;4.608;2023-10-19T00:20:53;4.10;;;1.23;;
71296;SDS011;59082;50.658;4.608;2023-10-19T00:23:25;3.33;;;1.40;;
71296;SDS011;59082;50.658;4.608;2023-10-19T00:25:54;5.30;;;1.20;;
71296;SDS011;59082;50.658;4.608;2023-10-19T00:28:21;6.37;;;1.27;;
71296;SDS011;59082;50.658;4.608;2023-10-19T00:30:48;1.02;;;0.70;;
71296;SDS011;59082;50.658;4.608;2023-10-19T00:33:15;3.15;;;1.20;;
71296;SDS011;59082;50.658;4.608;2023-10-19T00:35:45;4.68;;;0.90;;
71296;SDS011;59082;50.658;4.608;2023-10-19T00:38:25;5.57;;;0.93;;
71296;SDS011;59082;50.658;4.608;2023-10-19T00:41:00;1.93;;;0.90;;
71296;SDS011;59082;50.658;4.608;2023-10-19T00:43:42;5.82;;;0.82;;
71296;SDS011;59082;50.658;4.608;2023-10-19T00:46:11;1.85;;;0.63;;
71296;SDS011;59082;50.658;4.608;2023-10-19T00:48:45;7.15;;;0.77;;
71296;SDS011;59082;50.658;4.608;2023-10-19T00:51:16;2.33;;;0.77;;
71296;SDS011;59082;50.658;4.608;2023-10-19T00:54:13;1.60;;;1.10;;
71296;SDS011;59082;50.658;4.608;2023-10-19T00:56:42;6.13;;;1.30;;
71296;SDS011;59082;50.658;4.608;2023-10-19T00:59:12;4.38;;;0.73;;
71296;SDS011;59082;50.658;4.608;2023-10-19T01:01:42;6.75;;;1.23;;
71296;SDS011;59082;50.658;4.608;2023-10-19T01:04:10;4.85;;;1.30;;
71296;SDS011;59082;50.658;4.608;2023-10-19T01:06:42;2.57;;;0.93;;
71296;SDS011;59082;50.658;4.608;2023-10-19T01:09:25;4.57;;;0.85;;
71296;SDS011;59082;50.658;4.608;2023-10-19T01:11:52;2.45;;;0.93;;
71296;SDS011;59082;50.658;4.608;2023-10-19T01:14:19;3.00;;;1.10;;
71296;SDS011;59082;50.658;4.608;2023-10-19T01:16:47;8.23;;;1.63;;
71296;SDS011;59082;50.658;4.608;2023-10-19T01:19:14;2.37;;;0.97;;
71296;SDS011;59082;50.658;4.608;2023-10-19T01:21:44;2.83;;;0.60;;
71296;SDS011;59082;50.658;4.608;2023-10-19T01:24:17;5.00;;;1.48;;
71296;SDS011;59082;50.658;4.608;2023-10-19T01:26:46;3.47;;;1.13;;
71296;SDS011;59082;50.658;4.608;2023-10-19T01:29:12;3.40;;;1.20;;
71296;SDS011;59082;50.658;4.608;2023-10-19T01:31:42;2.30;;;1.08;;
71296;SDS011;59082;50.658;4.608;2023-10-19T01:34:21;5.43;;;0.88;;
71296;SDS011;59082;50.658;4.608;2023-10-19T01:36:47;5.38;;;1.50;;
71296;SDS011;59082;50.658;4.608;2023-10-19T01:39:16;5.10;;;1.40;;
71296;SDS011;59082;50.658;4.608;2023-10-19T01:41:44;6.20;;;1.43;;
71296;SDS011;59082;50.658;4.608;2023-10-19T01:44:10;8.00;;;1.73;;
71296;SDS011;59082;50.658;4.608;2023-10-19T01:46:38;5.82;;;2.05;;
71296;SDS011;59082;50.658;4.608;2023-10-19T01:49:05;2.97;;;1.08;;
71296;SDS011;59082;50.658;4.608;2023-10-19T01:51:31;8.05;;;1.55;;
71296;SDS011;59082;50.658;4.608;2023-10-19T01:53:58;8.13;;;1.50;;
71296;SDS011;59082;50.658;4.608;2023-10-19T01:56:26;5.22;;;1.88;;
71296;SDS011;59082;50.658;4.608;2023-10-19T01:58:52;5.50;;;2.03;;
71296;SDS011;59082;50.658;4.608;2023-10-19T02:01:19;3.70;;;1.58;;
71296;SDS011;59082;50.658;4.608;2023-10-19T02:03:59;4.75;;;1.55;;
71296;SDS011;59082;50.658;4.608;2023-10-19T02:06:26;6.83;;;1.57;;
71296;SDS011;59082;50.658;4.608;2023-10-19T02:08:59;5.95;;;1.52;;
71296;SDS011;59082;50.658;4.608;2023-10-19T02:11:34;5.43;;;2.20;;
71296;SDS011;59082;50.658;4.608;2023-10-19T02:14:03;6.18;;;1.17;;
71296;SDS011;59082;50.658;4.608;2023-10-19T02:16:36;4.50;;;1.30;;
71296;SDS011;59082;50.658;4.608;2023-10-19T02:19:03;8.00;;;1.90;;
71296;SDS011;59082;50.658;4.608;2023-10-19T02:21:28;3.40;;;1.40;;
71296;SDS011;59082;50.658;4.608;2023-10-19T02:23:56;5.53;;;1.55;;
71296;SDS011;59082;50.658;4.608;2023-10-19T02:26:22;5.37;;;0.47;;
71296;SDS011;59082;50.658;4.608;2023-10-19T02:28:52;3.90;;;1.48;;
71296;SDS011;59082;50.658;4.608;2023-10-19T02:31:18;11.75;;;2.17;;
71296;SDS011;59082;50.658;4.608;2023-10-19T02:33:48;3.50;;;1.00;;
71296;SDS011;59082;50.658;4.608;2023-10-19T02:36:18;7.00;;;1.13;;
71296;SDS011;59082;50.658;4.608;2023-10-19T02:38:45;5.25;;;1.15;;
71296;SDS011;59082;50.658;4.608;2023-10-19T02:41:16;3.83;;;1.27;;
71296;SDS011;59082;50.658;4.608;2023-10-19T02:43:46;4.82;;;1.45;;
71296;SDS011;59082;50.658;4.608;2023-10-19T02:46:16;6.68;;;1.48;;
71296;SDS011;59082;50.658;4.608;2023-10-19T02:48:45;7.27;;;0.97;;
71296;SDS011;59082;50.658;4.608;2023-10-19T02:51:12;5.05;;;1.20;;
71296;SDS011;59082;50.658;4.608;2023-10-19T02:53:41;11.05;;;2.15;;
71296;SDS011;59082;50.658;4.608;2023-10-19T02:56:13;3.97;;;1.38;;
71296;SDS011;59082;50.658;4.608;2023-10-19T02:58:45;4.60;;;1.80;;
71296;SDS011;59082;50.658;4.608;2023-10-19T03:01:18;8.57;;;1.37;;
71296;SDS011;59082;50.658;4.608;2023-10-19T03:03:51;7.22;;;1.60;;
71296;SDS011;59082;50.658;4.608;2023-10-19T03:06:22;10.32;;;2.00;;
71296;SDS011;59082;50.658;4.608;2023-10-19T03:08:48;9.10;;;1.83;;
71296;SDS011;59082;50.658;4.608;2023-10-19T03:11:29;4.55;;;1.63;;
71296;SDS011;59082;50.658;4.608;2023-10-19T03:13:54;6.43;;;1.70;;
71296;SDS011;59082;50.658;4.608;2023-10-19T03:16:22;6.40;;;2.03;;
71296;SDS011;59082;50.658;4.608;2023-10-19T03:18:49;7.47;;;2.33;;
71296;SDS011;59082;50.658;4.608;2023-10-19T03:21:18;10.75;;;2.33;;
71296;SDS011;59082;50.658;4.608;2023-10-19T03:23:44;10.15;;;2.13;;
71296;SDS011;59082;50.658;4.608;2023-10-19T03:26:10;7.73;;;1.83;;
71296;SDS011;59082;50.658;4.608;2023-10-19T03:28:55;7.47;;;1.42;;
71296;SDS011;59082;50.658;4.608;2023-10-19T03:31:23;9.73;;;2.63;;
71296;SDS011;59082;50.658;4.608;2023-10-19T03:33:51;10.20;;;2.33;;
71296;SDS011;59082;50.658;4.608;2023-10-19T03:36:23;3.67;;;1.70;;
71296;SDS011;59082;50.658;4.608;2023-10-19T03:38:49;5.50;;;1.55;;
71296;SDS011;59082;50.658;4.608;2023-10-19T03:41:19;6.80;;;1.73;;
71296;SDS011;59082;50.658;4.608;2023-10-19T03:43:53;10.23;;;1.88;;
71296;SDS011;59082;50.658;4.608;2023-10-19T03:46:19;10.07;;;2.15;;
71296;SDS011;59082;50.658;4.608;2023-10-19T03:48:59;12.00;;;2.63;;
71296;SDS011;59082;50.658;4.608;2023-10-19T03:51:36;8.85;;;1.98;;
71296;SDS011;59082;50.658;4.608;2023-10-19T03:54:05;7.05;;;1.70;;
71296;SDS011;59082;50.658;4.608;2023-10-19T03:56:48;15.75;;;2.38;;
71296;SDS011;59082;50.658;4.608;2023-10-19T03:59:16;6.25;;;2.20;;
71296;SDS011;59082;50.658;4.608;2023-10-19T04:01:42;7.00;;;2.20;;
71296;SDS011;59082;50.658;4.608;2023-10-19T04:04:11;7.72;;;1.75;;
71296;SDS011;59082;50.658;4.608;2023-10-19T04:06:37;7.65;;;1.77;;
71296;SDS011;59082;50.658;4.608;2023-10-19T04:09:03;8.63;;;2.57;;
71296;SDS011;59082;50.658;4.608;2023-10-19T04:11:32;8.02;;;3.05;;
71296;SDS011;59082;50.658;4.608;2023-10-19T04:14:10;9.32;;;2.90;;
71296;SDS011;59082;50.658;4.608;2023-10-19T04:16:35;12.32;;;2.78;;
71296;SDS011;59082;50.658;4.608;2023-10-19T04:19:02;7.43;;;2.83;;
71296;SDS011;59082;50.658;4.608;2023-10-19T04:21:29;6.05;;;2.58;;
71296;SDS011;59082;50.658;4.608;2023-10-19T04:23:55;8.55;;;2.30;;
71296;SDS011;59082;50.658;4.608;2023-10-19T04:26:22;7.05;;;2.08;;
71296;SDS011;59082;50.658;4.608;2023-10-19T04:28:49;7.93;;;2.10;;
71296;SDS011;59082;50.658;4.608;2023-10-19T04:31:18;8.43;;;2.00;;
71296;SDS011;59082;50.658;4.608;2023-10-19T04:33:44;10.15;;;3.03;;
71296;SDS011;59082;50.658;4.608;2023-10-19T04:36:14;4.75;;;2.35;;
71296;SDS011;59082;50.658;4.608;2023-10-19T04:38:41;10.27;;;2.00;;
71296;SDS011;59082;50.658;4.608;2023-10-19T04:41:09;5.80;;;2.03;;
71296;SDS011;59082;50.658;4.608;2023-10-19T04:43:38;7.03;;;1.65;;
71296;SDS011;59082;50.658;4.608;2023-10-19T04:46:06;6.30;;;2.05;;
71296;SDS011;59082;50.658;4.608;2023-10-19T04:48:34;5.50;;;2.03;;
71296;SDS011;59082;50.658;4.608;2023-10-19T04:51:01;8.60;;;2.77;;
71296;SDS011;59082;50.658;4.608;2023-10-19T04:53:30;11.25;;;2.10;;
71296;SDS011;59082;50.658;4.608;2023-10-19T04:55:56;7.13;;;3.05;;
71296;SDS011;59082;50.658;4.608;2023-10-19T04:58:21;6.27;;;2.20;;
71296;SDS011;59082;50.658;4.608;2023-10-19T05:00:47;10.18;;;2.42;;
71296;SDS011;59082;50.658;4.608;2023-10-19T05:03:14;11.15;;;2.38;;
71296;SDS011;59082;50.658;4.608;2023-10-19T05:05:44;8.97;;;2.00;;
71296;SDS011;59082;50.658;4.608;2023-10-19T05:08:10;8.48;;;2.20;;
71296;SDS011;59082;50.658;4.608;2023-10-19T05:10:36;6.93;;;1.95;;
71296;SDS011;59082;50.658;4.608;2023-10-19T05:13:02;9.97;;;1.57;;
71296;SDS011;59082;50.658;4.608;2023-10-19T05:15:28;7.97;;;1.60;;
71296;SDS011;59082;50.658;4.608;2023-10-19T05:17:54;8.13;;;1.88;;
71296;SDS011;59082;50.658;4.608;2023-10-19T05:20:20;4.65;;;1.75;;
71296;SDS011;59082;50.658;4.608;2023-10-19T05:22:46;8.47;;;1.73;;
71296;SDS011;59082;50.658;4.608;2023-10-19T05:25:12;8.80;;;1.55;;
71296;SDS011;59082;50.658;4.608;2023-10-19T05:27:39;8.20;;;2.67;;
71296;SDS011;59082;50.658;4.608;2023-10-19T05:30:05;6.27;;;1.90;;
71296;SDS011;59082;50.658;4.608;2023-10-19T05:32:35;7.30;;;1.90;;
71296;SDS011;59082;50.658;4.608;2023-10-19T05:35:00;7.80;;;1.92;;
71296;SDS011;59082;50.658;4.608;2023-10-19T05:37:29;7.50;;;1.43;;
71296;SDS011;59082;50.658;4.608;2023-10-19T05:39:55;6.93;;;1.92;;
71296;SDS011;59082;50.658;4.608;2023-10-19T05:42:20;10.10;;;1.90;;
71296;SDS011;59082;50.658;4.608;2023-10-19T05:44:47;8.88;;;2.20;;
71296;SDS011;59082;50.658;4.608;2023-10-19T05:47:12;11.10;;;1.70;;
71296;SDS011;59082;50.658;4.608;2023-10-19T05:49:38;9.47;;;1.87;;
71296;SDS011;59082;50.658;4.608;2023-10-19T05:52:04;7.80;;;2.07;;
71296;SDS011;59082;50.658;4.608;2023-10-19T05:54:29;9.35;;;3.00;;
71296;SDS011;59082;50.658;4.608;2023-10-19T05:56:55;7.10;;;1.97;;
71296;SDS011;59082;50.658;4.608;2023-10-19T05:59:21;6.80;;;2.28;;
71296;SDS011;59082;50.658;4.608;2023-10-19T06:01:49;8.53;;;1.90;;
71296;SDS011;59082;50.658;4.608;2023-10-19T06:04:15;10.45;;;2.08;;
71296;SDS011;59082;50.658;4.608;2023-10-19T06:06:40;12.18;;;2.85;;
71296;SDS011;59082;50.658;4.608;2023-10-19T06:09:06;6.63;;;1.63;;
71296;SDS011;59082;50.658;4.608;2023-10-19T06:11:34;13.43;;;2.25;;
71296;SDS011;59082;50.658;4.608;2023-10-19T06:14:05;8.35;;;1.95;;
71296;SDS011;59082;50.658;4.608;2023-10-19T06:16:34;13.43;;;2.20;;
71296;SDS011;59082;50.658;4.608;2023-10-19T06:19:00;6.93;;;2.42;;
71296;SDS011;59082;50.658;4.608;2023-10-19T06:21:26;11.45;;;2.72;;
71296;SDS011;59082;50.658;4.608;2023-10-19T06:23:51;11.90;;;2.37;;
71296;SDS011;59082;50.658;4.608;2023-10-19T06:26:18;10.85;;;2.58;;
71296;SDS011;59082;50.658;4.608;2023-10-19T06:28:44;6.82;;;2.42;;
71296;SDS011;59082;50.658;4.608;2023-10-19T06:31:10;10.67;;;3.00;;
71296;SDS011;59082;50.658;4.608;2023-10-19T06:33:35;12.03;;;2.53;;
71296;SDS011;59082;50.658;4.608;2023-10-19T06:36:01;6.22;;;1.52;;
71296;SDS011;59082;50.658;4.608;2023-10-19T06:38:28;9.63;;;1.92;;
71296;SDS011;59082;50.658;4.608;2023-10-19T06:40:54;9.90;;;2.23;;
71296;SDS011;59082;50.658;4.608;2023-10-19T06:43:21;6.70;;;1.55;;
71296;SDS011;59082;50.658;4.608;2023-10-19T06:45:49;14.40;;;3.03;;
71296;SDS011;59082;50.658;4.608;2023-10-19T06:48:15;8.68;;;2.85;;
71296;SDS011;59082;50.658;4.608;2023-10-19T06:50:40;7.87;;;2.23;;
71296;SDS011;59082;50.658;4.608;2023-10-19T06:53:06;11.97;;;2.90;;
71296;SDS011;59082;50.658;4.608;2023-10-19T06:55:31;9.65;;;2.72;;
71296;SDS011;59082;50.658;4.608;2023-10-19T06:57:58;7.63;;;2.47;;
71296;SDS011;59082;50.658;4.608;2023-10-19T07:00:24;10.87;;;2.40;;
71296;SDS011;59082;50.658;4.608;2023-10-19T07:02:52;12.55;;;2.83;;
71296;SDS011;59082;50.658;4.608;2023-10-19T07:05:20;9.82;;;3.80;;
71296;SDS011;59082;50.658;4.608;2023-10-19T07:07:47;11.93;;;3.42;;
71296;SDS011;59082;50.658;4.608;2023-10-19T07:10:15;12.10;;;3.38;;
71296;SDS011;59082;50.658;4.608;2023-10-19T07:12:43;11.30;;;2.77;;
71296;SDS011;59082;50.658;4.608;2023-10-19T07:15:10;10.75;;;2.63;;
71296;SDS011;59082;50.658;4.608;2023-10-19T07:17:44;11.82;;;3.60;;
71296;SDS011;59082;50.658;4.608;2023-10-19T07:20:14;11.30;;;2.70;;
71296;SDS011;59082;50.658;4.608;2023-10-19T07:23:07;8.68;;;2.47;;
71296;SDS011;59082;50.658;4.608;2023-10-19T07:25:49;13.63;;;2.77;;
71296;SDS011;59082;50.658;4.608;2023-10-19T07:28:25;7.93;;;2.83;;
71296;SDS011;59082;50.658;4.608;2023-10-19T07:30:55;9.05;;;2.63;;
71296;SDS011;59082;50.658;4.608;2023-10-19T07:33:22;12.40;;;2.60;;
71296;SDS011;59082;50.658;4.608;2023-10-19T07:35:49;11.90;;;2.50;;
71296;SDS011;59082;50.658;4.608;2023-10-19T07:38:25;12.35;;;3.05;;
71296;SDS011;59082;50.658;4.608;2023-10-19T07:40:51;10.73;;;2.90;;
71296;SDS011;59082;50.658;4.608;2023-10-19T07:43:18;8.90;;;2.65;;
71296;SDS011;59082;50.658;4.608;2023-10-19T07:45:45;5.97;;;2.17;;
71296;SDS011;59082;50.658;4.608;2023-10-19T07:48:12;13.87;;;3.67;;
71296;SDS011;59082;50.658;4.608;2023-10-19T07:50:39;9.25;;;2.60;;
71296;SDS011;59082;50.658;4.608;2023-10-19T07:53:08;11.13;;;2.10;;
71296;SDS011;59082;50.658;4.608;2023-10-19T07:55:36;13.55;;;2.83;;
71296;SDS011;59082;50.658;4.608;2023-10-19T07:58:03;14.65;;;2.70;;
71296;SDS011;59082;50.658;4.608;2023-10-19T08:00:29;8.90;;;3.20;;
71296;SDS011;59082;50.658;4.608;2023-10-19T08:02:55;10.73;;;3.05;;
71296;SDS011;59082;50.658;4.608;2023-10-19T08:05:21;12.80;;;2.97;;
71296;SDS011;59082;50.658;4.608;2023-10-19T08:07:47;10.90;;;3.10;;
71296;SDS011;59082;50.658;4.608;2023-10-19T08:10:18;15.32;;;3.03;;
71296;SDS011;59082;50.658;4.608;2023-10-19T08:12:45;7.63;;;2.35;;
71296;SDS011;59082;50.658;4.608;2023-10-19T08:15:16;7.33;;;2.23;;
71296;SDS011;59082;50.658;4.608;2023-10-19T08:17:47;11.75;;;2.45;;
71296;SDS011;59082;50.658;4.608;2023-10-19T08:20:14;9.38;;;2.50;;
71296;SDS011;59082;50.658;4.608;2023-10-19T08:22:55;7.95;;;2.28;;
71296;SDS011;59082;50.658;4.608;2023-10-19T08:25:22;8.88;;;2.33;;
71296;SDS011;59082;50.658;4.608;2023-10-19T08:27:48;9.43;;;2.00;;
71296;SDS011;59082;50.658;4.608;2023-10-19T08:30:16;13.95;;;2.65;;
71296;SDS011;59082;50.658;4.608;2023-10-19T08:32:43;8.65;;;2.45;;
71296;SDS011;59082;50.658;4.608;2023-10-19T08:35:13;8.80;;;2.40;;
71296;SDS011;59082;50.658;4.608;2023-10-19T08:38:00;8.27;;;2.03;;
71296;SDS011;59082;50.658;4.608;2023-10-19T08:40:29;11.37;;;2.43;;
71296;SDS011;59082;50.658;4.608;2023-10-19T08:42:55;8.70;;;1.88;;
71296;SDS011;59082;50.658;4.608;2023-10-19T08:45:21;12.35;;;2.38;;
71296;SDS011;59082;50.658;4.608;2023-10-19T08:47:54;10.23;;;2.33;;
71296;SDS011;59082;50.658;4.608;2023-10-19T08:50:21;10.65;;;2.35;;
71296;SDS011;59082;50.658;4.608;2023-10-19T08:52:49;10.07;;;2.63;;
71296;SDS011;59082;50.658;4.608;2023-10-19T08:55:18;9.35;;;2.10;;
71296;SDS011;59082;50.658;4.608;2023-10-19T08:57:45;10.37;;;2.07;;
71296;SDS011;59082;50.658;4.608;2023-10-19T09:00:14;9.18;;;2.45;;
71296;SDS011;59082;50.658;4.608;2023-10-19T09:02:43;9.32;;;3.13;;
71296;SDS011;59082;50.658;4.608;2023-10-19T09:05:08;8.10;;;2.10;;
71296;SDS011;59082;50.658;4.608;2023-10-19T09:07:45;9.10;;;2.30;;
71296;SDS011;59082;50.658;4.608;2023-10-19T09:10:15;10.90;;;2.53;;
71296;SDS011;59082;50.658;4.608;2023-10-19T09:12:41;10.20;;;2.55;;
71296;SDS011;59082;50.658;4.608;2023-10-19T09:15:29;13.00;;;3.22;;
71296;SDS011;59082;50.658;4.608;2023-10-19T09:17:57;5.67;;;1.93;;
71296;SDS011;59082;50.658;4.608;2023-10-19T09:20:48;10.95;;;2.00;;
71296;SDS011;59082;50.658;4.608;2023-10-19T09:23:33;10.85;;;2.53;;
71296;SDS011;59082;50.658;4.608;2023-10-19T09:26:00;8.60;;;2.05;;
71296;SDS011;59082;50.658;4.608;2023-10-19T09:28:30;6.85;;;1.83;;
71296;SDS011;59082;50.658;4.608;2023-10-19T09:30:58;8.50;;;1.40;;
71296;SDS011;59082;50.658;4.608;2023-10-19T09:33:25;6.03;;;2.03;;
71296;SDS011;59082;50.658;4.608;2023-10-19T09:35:52;11.98;;;2.28;;
71296;SDS011;59082;50.658;4.608;2023-10-19T09:38:19;7.45;;;1.45;;
71296;SDS011;59082;50.658;4.608;2023-10-19T09:40:49;8.13;;;2.90;;
71296;SDS011;59082;50.658;4.608;2023-10-19T09:43:16;10.17;;;1.93;;
71296;SDS011;59082;50.658;4.608;2023-10-19T09:45:56;9.32;;;2.88;;
71296;SDS011;59082;50.658;4.608;2023-10-19T09:48:25;11.90;;;2.30;;
71296;SDS011;59082;50.658;4.608;2023-10-19T09:50:53;6.97;;;1.52;;
71296;SDS011;59082;50.658;4.608;2023-10-19T09:53:23;8.37;;;1.40;;
71296;SDS011;59082;50.658;4.608;2023-10-19T09:55:57;9.32;;;2.22;;
71296;SDS011;59082;50.658;4.608;2023-10-19T09:58:27;6.82;;;1.67;;
71296;SDS011;59082;50.658;4.608;2023-10-19T10:00:56;5.80;;;1.63;;
71296;SDS011;59082;50.658;4.608;2023-10-19T10:03:43;8.13;;;1.23;;
71296;SDS011;59082;50.658;4.608;2023-10-19T10:06:17;6.50;;;2.10;;
71296;SDS011;59082;50.658;4.608;2023-10-19T10:09:03;9.60;;;2.00;;
71296;SDS011;59082;50.658;4.608;2023-10-19T10:11:29;8.50;;;1.50;;
71296;SDS011;59082;50.658;4.608;2023-10-19T10:13:56;13.47;;;2.93;;
71296;SDS011;59082;50.658;4.608;2023-10-19T10:16:26;8.02;;;2.15;;
71296;SDS011;59082;50.658;4.608;2023-10-19T10:18:57;7.88;;;1.48;;
71296;SDS011;59082;50.658;4.608;2023-10-19T10:21:27;8.23;;;1.40;;
71296;SDS011;59082;50.658;4.608;2023-10-19T10:23:58;9.20;;;1.00;;
71296;SDS011;59082;50.658;4.608;2023-10-19T10:26:29;7.83;;;1.47;;
71296;SDS011;59082;50.658;4.608;2023-10-19T10:29:10;7.07;;;1.42;;
71296;SDS011;59082;50.658;4.608;2023-10-19T10:31:46;7.60;;;2.03;;
71296;SDS011;59082;50.658;4.608;2023-10-19T10:37:06;3.53;;;1.58;;
71296;SDS011;59082;50.658;4.608;2023-10-19T10:39:33;5.73;;;1.90;;
71296;SDS011;59082;50.658;4.608;2023-10-19T10:42:06;5.28;;;1.45;;
71296;SDS011;59082;50.658;4.608;2023-10-19T10:44:40;10.90;;;3.60;;
71296;SDS011;59082;50.658;4.608;2023-10-19T10:47:10;8.18;;;2.95;;
71296;SDS011;59082;50.658;4.608;2023-10-19T10:52:35;5.23;;;1.80;;
71296;SDS011;59082;50.658;4.608;2023-10-19T10:55:08;7.47;;;1.40;;
71296;SDS011;59082;50.658;4.608;2023-10-19T10:57:43;7.72;;;2.22;;
71296;SDS011;59082;50.658;4.608;2023-10-19T11:00:13;4.20;;;0.82;;
71296;SDS011;59082;50.658;4.608;2023-10-19T11:02:45;8.73;;;2.33;;
71296;SDS011;59082;50.658;4.608;2023-10-19T11:05:12;6.63;;;1.47;;
71296;SDS011;59082;50.658;4.608;2023-10-19T11:07:40;12.77;;;2.10;;
71296;SDS011;59082;50.658;4.608;2023-10-19T11:10:07;8.73;;;2.17;;
71296;SDS011;59082;50.658;4.608;2023-10-19T11:12:35;8.85;;;1.70;;
71296;SDS011;59082;50.658;4.608;2023-10-19T11:15:01;6.10;;;1.70;;
71296;SDS011;59082;50.658;4.608;2023-10-19T11:17:41;6.10;;;2.00;;
71296;SDS011;59082;50.658;4.608;2023-10-19T11:20:09;4.78;;;1.85;;
71296;SDS011;59082;50.658;4.608;2023-10-19T11:22:47;5.72;;;1.70;;
71296;SDS011;59082;50.658;4.608;2023-10-19T11:25:20;8.65;;;1.73;;
71296;SDS011;59082;50.658;4.608;2023-10-19T11:27:47;6.68;;;1.33;;
71296;SDS011;59082;50.658;4.608;2023-10-19T11:30:13;5.53;;;1.37;;
71296;SDS011;59082;50.658;4.608;2023-10-19T11:32:47;6.28;;;1.85;;
71296;SDS011;59082;50.658;4.608;2023-10-19T11:35:13;8.43;;;1.20;;
71296;SDS011;59082;50.658;4.608;2023-10-19T11:37:48;3.40;;;1.38;;
71296;SDS011;59082;50.658;4.608;2023-10-19T11:40:15;8.20;;;1.17;;
71296;SDS011;59082;50.658;4.608;2023-10-19T11:42:41;5.03;;;0.93;;
71296;SDS011;59082;50.658;4.608;2023-10-19T11:45:07;5.57;;;1.30;;
71296;SDS011;59082;50.658;4.608;2023-10-19T11:47:33;4.53;;;0.95;;
71296;SDS011;59082;50.658;4.608;2023-10-19T11:49:59;4.85;;;1.33;;
71296;SDS011;59082;50.658;4.608;2023-10-19T11:52:25;3.17;;;1.33;;
71296;SDS011;59082;50.658;4.608;2023-10-19T11:54:53;4.03;;;1.10;;
71296;SDS011;59082;50.658;4.608;2023-10-19T11:57:19;6.35;;;0.63;;
71296;SDS011;59082;50.658;4.608;2023-10-19T11:59:45;6.47;;;1.47;;
71296;SDS011;59082;50.658;4.608;2023-10-19T12:02:10;3.03;;;0.93;;
71296;SDS011;59082;50.658;4.608;2023-10-19T12:04:36;2.17;;;1.60;;
71296;SDS011;59082;50.658;4.608;2023-10-19T12:07:02;4.93;;;1.67;;
71296;SDS011;59082;50.658;4.608;2023-10-19T12:09:28;5.10;;;1.27;;
71296;SDS011;59082;50.658;4.608;2023-10-19T12:11:55;3.40;;;1.77;;
71296;SDS011;59082;50.658;4.608;2023-10-19T12:14:21;4.57;;;1.87;;
71296;SDS011;59082;50.658;4.608;2023-10-19T12:16:48;4.13;;;2.40;;
71296;SDS011;59082;50.658;4.608;2023-10-19T12:19:14;8.02;;;2.17;;
71296;SDS011;59082;50.658;4.608;2023-10-19T12:21:42;6.68;;;3.40;;
71296;SDS011;59082;50.658;4.608;2023-10-19T12:24:08;6.53;;;3.07;;
71296;SDS011;59082;50.658;4.608;2023-10-19T12:26:34;5.82;;;3.33;;
71296;SDS011;59082;50.658;4.608;2023-10-19T12:28:59;8.45;;;4.53;;
71296;SDS011;59082;50.658;4.608;2023-10-19T12:31:25;5.90;;;3.87;;
71296;SDS011;59082;50.658;4.608;2023-10-19T12:33:51;4.32;;;3.42;;
71296;SDS011;59082;50.658;4.608;2023-10-19T12:36:17;4.25;;;3.05;;
71296;SDS011;59082;50.658;4.608;2023-10-19T12:38:52;3.40;;;2.27;;
71296;SDS011;59082;50.658;4.608;2023-10-19T12:41:19;3.90;;;2.20;;
71296;SDS011;59082;50.658;4.608;2023-10-19T12:43:46;2.88;;;1.63;;
71296;SDS011;59082;50.658;4.608;2023-10-19T12:46:15;3.17;;;1.55;;
71296;SDS011;59082;50.658;4.608;2023-10-19T12:48:41;2.63;;;1.98;;
71296;SDS011;59082;50.658;4.608;2023-10-19T12:51:07;3.27;;;1.70;;
71296;SDS011;59082;50.658;4.608;2023-10-19T12:53:36;5.70;;;1.00;;
71296;SDS011;59082;50.658;4.608;2023-10-19T12:56:05;1.90;;;0.88;;
71296;SDS011;59082;50.658;4.608;2023-10-19T12:58:32;1.38;;;0.55;;
71296;SDS011;59082;50.658;4.608;2023-10-19T13:00:58;3.03;;;0.43;;
71296;SDS011;59082;50.658;4.608;2023-10-19T13:03:24;1.73;;;0.80;;
71296;SDS011;59082;50.658;4.608;2023-10-19T13:05:56;1.93;;;0.60;;
71296;SDS011;59082;50.658;4.608;2023-10-19T13:08:23;1.50;;;0.82;;
71296;SDS011;59082;50.658;4.608;2023-10-19T13:10:52;2.28;;;1.25;;
71296;SDS011;59082;50.658;4.608;2023-10-19T13:13:19;2.30;;;0.73;;
71296;SDS011;59082;50.658;4.608;2023-10-19T13:15:49;4.30;;;0.60;;
71296;SDS011;59082;50.658;4.608;2023-10-19T13:18:14;1.53;;;1.03;;
71296;SDS011;59082;50.658;4.608;2023-10-19T13:20:48;2.45;;;1.05;;
71296;SDS011;59082;50.658;4.608;2023-10-19T13:23:14;2.43;;;1.00;;
71296;SDS011;59082;50.658;4.608;2023-10-19T13:25:47;1.67;;;0.75;;
71296;SDS011;59082;50.658;4.608;2023-10-19T13:28:19;1.10;;;0.95;;
71296;SDS011;59082;50.658;4.608;2023-10-19T13:30:48;1.60;;;0.90;;
71296;SDS011;59082;50.658;4.608;2023-10-19T13:33:16;1.48;;;1.15;;
71296;SDS011;59082;50.658;4.608;2023-10-19T13:35:43;3.37;;;1.47;;
71296;SDS011;59082;50.658;4.608;2023-10-19T13:38:10;4.03;;;1.27;;
71296;SDS011;59082;50.658;4.608;2023-10-19T13:40:39;3.83;;;1.67;;
71296;SDS011;59082;50.658;4.608;2023-10-19T13:43:05;2.75;;;1.30;;
71296;SDS011;59082;50.658;4.608;2023-10-19T13:45:35;4.78;;;1.45;;
71296;SDS011;59082;50.658;4.608;2023-10-19T13:48:02;2.77;;;1.23;;
71296;SDS011;59082;50.658;4.608;2023-10-19T13:50:29;2.95;;;1.08;;
71296;SDS011;59082;50.658;4.608;2023-10-19T13:52:55;2.83;;;0.80;;
71296;SDS011;59082;50.658;4.608;2023-10-19T13:55:22;2.83;;;0.63;;
71296;SDS011;59082;50.658;4.608;2023-10-19T13:57:48;0.90;;;0.50;;
71296;SDS011;59082;50.658;4.608;2023-10-19T14:00:15;2.23;;;0.90;;
71296;SDS011;59082;50.658;4.608;2023-10-19T14:02:55;3.28;;;1.02;;
71296;SDS011;59082;50.658;4.608;2023-10-19T14:05:24;2.47;;;0.65;;
71296;SDS011;59082;50.658;4.608;2023-10-19T14:07:50;2.33;;;1.02;;
71296;SDS011;59082;50.658;4.608;2023-10-19T14:10:17;2.13;;;1.10;;
71296;SDS011;59082;50.658;4.608;2023-10-19T14:12:45;3.15;;;1.08;;
71296;SDS011;59082;50.658;4.608;2023-10-19T14:15:20;4.38;;;1.02;;
71296;SDS011;59082;50.658;4.608;2023-10-19T14:17:46;1.48;;;1.20;;
71296;SDS011;59082;50.658;4.608;2023-10-19T14:20:16;1.58;;;1.15;;
71296;SDS011;59082;50.658;4.608;2023-10-19T14:22:43;1.53;;;1.23;;
71296;SDS011;59082;50.658;4.608;2023-10-19T14:25:14;4.40;;;1.20;;
71296;SDS011;59082;50.658;4.608;2023-10-19T14:27:44;1.70;;;1.30;;
71296;SDS011;59082;50.658;4.608;2023-10-19T14:30:11;7.30;;;1.58;;
71296;SDS011;59082;50.658;4.608;2023-10-19T14:32:42;2.35;;;0.82;;
71296;SDS011;59082;50.658;4.608;2023-10-19T14:35:09;2.90;;;1.00;;
71296;SDS011;59082;50.658;4.608;2023-10-19T14:37:39;4.72;;;0.93;;
71296;SDS011;59082;50.658;4.608;2023-10-19T14:40:12;3.15;;;1.10;;
71296;SDS011;59082;50.658;4.608;2023-10-19T14:42:40;5.53;;;1.55;;
71296;SDS011;59082;50.658;4.608;2023-10-19T14:45:10;3.65;;;1.30;;
71296;SDS011;59082;50.658;4.608;2023-10-19T14:47:37;1.43;;;1.27;;
71296;SDS011;59082;50.658;4.608;2023-10-19T14:50:10;5.35;;;1.42;;
71296;SDS011;59082;50.658;4.608;2023-10-19T14:52:40;5.80;;;1.65;;
71296;SDS011;59082;50.658;4.608;2023-10-19T14:55:06;1.75;;;0.77;;
71296;SDS011;59082;50.658;4.608;2023-10-19T14:57:33;2.47;;;1.60;;
71296;SDS011;59082;50.658;4.608;2023-10-19T14:59:59;1.93;;;0.70;;
71296;SDS011;59082;50.658;4.608;2023-10-19T15:02:48;2.35;;;0.80;;